sensor_id;sensor_type;location;lat;lon;timestamp;pressure;altitude;pressure_sealevel;temperature;humidity
70833;BME280;71099;59.528;17.886;2023-10-09T00:01:10;101222.34;;;3.55;66.94
70833;BME280;71099;59.528;17.886;2023-10-09T00:03:42;101225.59;;;3.57;67.38
70833;BME280;71099;59.528;17.886;2023-10-09T00:06:09;101219.59;;;3.58;68.03
70833;BME280;71099;59.528;17.886;2023-10-09T00:08:37;101222.16;;;3.58;67.56
70833;BME280;71099;59.528;17.886;2023-10-09T00:11:04;101217.22;;;3.55;67.89
70833;BME280;71099;59.528;17.886;2023-10-09T00:13:46;101222.34;;;3.55;68.02
70833;BME280;71099;59.528;17.886;2023-10-09T00:16:20;101213.75;;;3.56;67.89
70833;BME280;71099;59.528;17.886;2023-10-09T00:19:02;101217.41;;;3.52;67.87
70833;BME280;71099;59.528;17.886;2023-10-09T00:21:55;101219.19;;;3.50;67.95
70833;BME280;71099;59.528;17.886;2023-10-09T00:24:21;101215.75;;;3.51;68.64
70833;BME280;71099;59.528;17.886;2023-10-09T00:26:53;101208.81;;;3.53;68.41
70833;BME280;71099;59.528;17.886;2023-10-09T00:29:21;101204.06;;;3.47;68.30
70833;BME280;71099;59.528;17.886;2023-10-09T00:31:51;101201.28;;;3.52;68.21
70833;BME280;71099;59.528;17.886;2023-10-09T00:34:20;101206.09;;;3.56;68.16
70833;BME280;71099;59.528;17.886;2023-10-09T00:36:48;101204.94;;;3.62;68.49
70833;BME280;71099;59.528;17.886;2023-10-09T00:39:19;101201.38;;;3.64;68.24
70833;BME280;71099;59.528;17.886;2023-10-09T00:42:06;101189.72;;;3.60;67.89
70833;BME280;71099;59.528;17.886;2023-10-09T00:44:32;101194.50;;;3.66;68.61
70833;BME280;71099;59.528;17.886;2023-10-09T00:47:14;101181.16;;;3.61;68.38
70833;BME280;71099;59.528;17.886;2023-10-09T00:49:55;101183.88;;;3.58;68.59
70833;BME280;71099;59.528;17.886;2023-10-09T00:52:31;101174.75;;;3.54;68.82
70833;BME280;71099;59.528;17.886;2023-10-09T00:55:02;101180.22;;;3.48;68.86
70833;BME280;71099;59.528;17.886;2023-10-09T00:58:04;101171.81;;;3.46;69.66
70833;BME280;71099;59.528;17.886;2023-10-09T01:00:42;101169.81;;;3.51;69.08
70833;BME280;71099;59.528;17.886;2023-10-09T01:03:19;101163.97;;;3.49;69.54
70833;BME280;71099;59.528;17.886;2023-10-09T01:05:48;101169.25;;;3.46;69.47
70833;BME280;71099;59.528;17.886;2023-10-09T01:08:28;101150.38;;;3.49;69.63
70833;BME280;71099;59.528;17.886;2023-10-09T01:11:07;101148.94;;;3.44;69.20
70833;BME280;71099;59.528;17.886;2023-10-09T01:13:36;101148.50;;;3.52;69.83
70833;BME280;71099;59.528;17.886;2023-10-09T01:16:19;101155.06;;;3.56;69.36
70833;BME280;71099;59.528;17.886;2023-10-09T01:18:54;101144.78;;;3.58;68.92
70833;BME280;71099;59.528;17.886;2023-10-09T01:21:23;101141.66;;;3.53;68.47
70833;BME280;71099;59.528;17.886;2023-10-09T01:23:50;101140.84;;;3.52;68.81
70833;BME280;71099;59.528;17.886;2023-10-09T01:26:41;101135.25;;;3.45;69.20
70833;BME280;71099;59.528;17.886;2023-10-09T01:29:14;101129.06;;;3.50;68.88
70833;BME280;71099;59.528;17.886;2023-10-09T01:31:41;101124.78;;;3.50;68.66
70833;BME280;71099;59.528;17.886;2023-10-09T01:34:30;101121.84;;;3.42;68.25
70833;BME280;71099;59.528;17.886;2023-10-09T01:37:11;101121.13;;;3.40;68.72
70833;BME280;71099;59.528;17.886;2023-10-09T01:39:43;101112.41;;;3.44;68.55
70833;BME280;71099;59.528;17.886;2023-10-09T01:42:10;101115.50;;;3.49;68.55
70833;BME280;71099;59.528;17.886;2023-10-09T01:44:36;101118.22;;;3.46;68.56
70833;BME280;71099;59.528;17.886;2023-10-09T01:47:09;101114.59;;;3.50;68.75
70833;BME280;71099;59.528;17.886;2023-10-09T01:49:39;101113.50;;;3.54;68.74
70833;BME280;71099;59.528;17.886;2023-10-09T01:52:15;101115.06;;;3.57;69.01
70833;BME280;71099;59.528;17.886;2023-10-09T01:54:50;101115.78;;;3.44;68.65
70833;BME280;71099;59.528;17.886;2023-10-09T01:57:17;101122.41;;;3.47;68.40
70833;BME280;71099;59.528;17.886;2023-10-09T01:59:50;101119.13;;;3.45;68.65
70833;BME280;71099;59.528;17.886;2023-10-09T02:02:19;101117.31;;;3.47;68.58
70833;BME280;71099;59.528;17.886;2023-10-09T02:05:04;101113.03;;;3.48;69.23
70833;BME280;71099;59.528;17.886;2023-10-09T02:07:39;101110.22;;;3.52;68.34
70833;BME280;71099;59.528;17.886;2023-10-09T02:10:17;101116.34;;;3.34;68.55
70833;BME280;71099;59.528;17.886;2023-10-09T02:13:02;101105.91;;;3.38;68.97
70833;BME280;71099;59.528;17.886;2023-10-09T02:15:40;101099.06;;;3.39;68.87
70833;BME280;71099;59.528;17.886;2023-10-09T02:18:15;101107.63;;;3.38;68.74
70833;BME280;71099;59.528;17.886;2023-10-09T02:23:38;101094.81;;;3.24;69.54
70833;BME280;71099;59.528;17.886;2023-10-09T02:26:13;101089.72;;;3.24;69.53
70833;BME280;71099;59.528;17.886;2023-10-09T02:28:55;101096.56;;;3.23;69.55
70833;BME280;71099;59.528;17.886;2023-10-09T02:31:25;101092.63;;;3.18;69.07
70833;BME280;71099;59.528;17.886;2023-10-09T02:33:53;101091.09;;;3.15;69.76
70833;BME280;71099;59.528;17.886;2023-10-09T02:36:21;101084.88;;;3.19;69.74
70833;BME280;71099;59.528;17.886;2023-10-09T02:38:47;101084.16;;;3.17;69.24
70833;BME280;71099;59.528;17.886;2023-10-09T02:41:15;101085.16;;;3.15;69.27
70833;BME280;71099;59.528;17.886;2023-10-09T02:43:40;101076.94;;;3.10;69.05
70833;BME280;71099;59.528;17.886;2023-10-09T02:46:17;101081.69;;;3.16;69.22
70833;BME280;71099;59.528;17.886;2023-10-09T02:48:52;101076.09;;;3.09;69.09
70833;BME280;71099;59.528;17.886;2023-10-09T02:51:24;101079.88;;;3.18;68.71
70833;BME280;71099;59.528;17.886;2023-10-09T02:53:56;101076.25;;;3.22;68.84
70833;BME280;71099;59.528;17.886;2023-10-09T02:56:26;101074.38;;;3.10;68.83
70833;BME280;71099;59.528;17.886;2023-10-09T02:59:13;101074.56;;;3.07;69.00
70833;BME280;71099;59.528;17.886;2023-10-09T03:01:39;101071.94;;;3.08;69.03
70833;BME280;71099;59.528;17.886;2023-10-09T03:04:06;101075.69;;;3.01;69.15
70833;BME280;71099;59.528;17.886;2023-10-09T03:06:33;101064.31;;;2.92;69.48
70833;BME280;71099;59.528;17.886;2023-10-09T03:09:03;101055.84;;;2.92;69.14
70833;BME280;71099;59.528;17.886;2023-10-09T03:11:46;101054.00;;;2.94;69.02
70833;BME280;71099;59.528;17.886;2023-10-09T03:14:13;101055.00;;;2.91;69.44
70833;BME280;71099;59.528;17.886;2023-10-09T03:16:39;101052.47;;;2.91;69.63
70833;BME280;71099;59.528;17.886;2023-10-09T03:19:04;101044.63;;;2.94;69.44
70833;BME280;71099;59.528;17.886;2023-10-09T03:21:30;101047.94;;;2.97;69.14
70833;BME280;71099;59.528;17.886;2023-10-09T03:23:55;101044.75;;;2.93;68.74
70833;BME280;71099;59.528;17.886;2023-10-09T03:26:22;101055.72;;;2.93;69.04
70833;BME280;71099;59.528;17.886;2023-10-09T03:28:51;101057.81;;;2.87;68.83
70833;BME280;71099;59.528;17.886;2023-10-09T03:31:17;101045.53;;;2.93;68.82
70833;BME280;71099;59.528;17.886;2023-10-09T03:33:43;101056.22;;;3.00;68.48
70833;BME280;71099;59.528;17.886;2023-10-09T03:36:08;101049.19;;;2.89;69.07
70833;BME280;71099;59.528;17.886;2023-10-09T03:38:38;101043.91;;;2.92;68.84
70833;BME280;71099;59.528;17.886;2023-10-09T03:41:05;101044.16;;;2.88;69.00
70833;BME280;71099;59.528;17.886;2023-10-09T03:43:34;101045.53;;;2.93;68.80
70833;BME280;71099;59.528;17.886;2023-10-09T03:46:13;101037.38;;;3.03;69.01
70833;BME280;71099;59.528;17.886;2023-10-09T03:48:57;101040.75;;;3.03;69.22
70833;BME280;71099;59.528;17.886;2023-10-09T03:51:26;101036.31;;;3.07;69.19
70833;BME280;71099;59.528;17.886;2023-10-09T03:53:52;101035.22;;;3.11;68.62
70833;BME280;71099;59.528;17.886;2023-10-09T03:56:20;101034.47;;;3.09;68.64
70833;BME280;71099;59.528;17.886;2023-10-09T03:58:50;101036.31;;;3.07;68.95
70833;BME280;71099;59.528;17.886;2023-10-09T04:01:19;101038.28;;;3.02;68.47
70833;BME280;71099;59.528;17.886;2023-10-09T04:03:53;101035.47;;;3.06;68.77
70833;BME280;71099;59.528;17.886;2023-10-09T04:06:23;101041.06;;;3.13;69.12
70833;BME280;71099;59.528;17.886;2023-10-09T04:08:54;101040.06;;;3.15;68.95
70833;BME280;71099;59.528;17.886;2023-10-09T04:11:20;101033.97;;;3.18;68.77
70833;BME280;71099;59.528;17.886;2023-10-09T04:13:49;101029.88;;;3.15;68.66
70833;BME280;71099;59.528;17.886;2023-10-09T04:16:19;101032.31;;;3.17;68.51
70833;BME280;71099;59.528;17.886;2023-10-09T04:18:54;101021.28;;;3.16;69.18
70833;BME280;71099;59.528;17.886;2023-10-09T04:21:24;101022.88;;;3.19;69.22
70833;BME280;71099;59.528;17.886;2023-10-09T04:24:01;101015.47;;;3.14;69.28
70833;BME280;71099;59.528;17.886;2023-10-09T04:26:41;101015.94;;;3.21;68.77
70833;BME280;71099;59.528;17.886;2023-10-09T04:29:11;101016.84;;;3.20;68.84
70833;BME280;71099;59.528;17.886;2023-10-09T04:31:47;101011.28;;;3.13;68.19
70833;BME280;71099;59.528;17.886;2023-10-09T04:34:20;101013.19;;;3.10;68.11
70833;BME280;71099;59.528;17.886;2023-10-09T04:36:56;101015.91;;;3.07;67.92
70833;BME280;71099;59.528;17.886;2023-10-09T04:39:45;101002.97;;;3.10;68.34
70833;BME280;71099;59.528;17.886;2023-10-09T04:42:16;101010.28;;;3.16;68.65
70833;BME280;71099;59.528;17.886;2023-10-09T04:44:50;101009.16;;;3.06;68.21
70833;BME280;71099;59.528;17.886;2023-10-09T04:47:39;101001.78;;;3.01;67.98
70833;BME280;71099;59.528;17.886;2023-10-09T04:50:15;101005.25;;;3.00;68.78
70833;BME280;71099;59.528;17.886;2023-10-09T04:52:43;101005.13;;;3.02;68.88
70833;BME280;71099;59.528;17.886;2023-10-09T04:55:08;101006.88;;;3.01;69.07
70833;BME280;71099;59.528;17.886;2023-10-09T05:00:12;100997.16;;;3.08;69.06
70833;BME280;71099;59.528;17.886;2023-10-09T05:02:51;101007.03;;;2.98;69.54
70833;BME280;71099;59.528;17.886;2023-10-09T05:05:37;101001.41;;;2.93;69.68
70833;BME280;71099;59.528;17.886;2023-10-09T05:08:23;100997.66;;;2.99;69.90
70833;BME280;71099;59.528;17.886;2023-10-09T05:10:59;100998.50;;;2.99;70.64
70833;BME280;71099;59.528;17.886;2023-10-09T05:13:32;100996.53;;;3.04;70.04
70833;BME280;71099;59.528;17.886;2023-10-09T05:16:08;100999.06;;;3.04;69.53
70833;BME280;71099;59.528;17.886;2023-10-09T05:18:50;100997.50;;;3.02;70.12
70833;BME280;71099;59.528;17.886;2023-10-09T05:21:40;101003.78;;;2.96;69.40
70833;BME280;71099;59.528;17.886;2023-10-09T05:24:09;101003.38;;;2.88;69.88
70833;BME280;71099;59.528;17.886;2023-10-09T05:26:59;101001.00;;;2.85;69.53
70833;BME280;71099;59.528;17.886;2023-10-09T05:29:42;101002.47;;;2.89;69.86
70833;BME280;71099;59.528;17.886;2023-10-09T05:32:24;101001.66;;;2.88;69.89
70833;BME280;71099;59.528;17.886;2023-10-09T05:35:00;101001.66;;;2.88;69.82
70833;BME280;71099;59.528;17.886;2023-10-09T05:37:32;101004.94;;;2.90;70.14
70833;BME280;71099;59.528;17.886;2023-10-09T05:40:05;101007.66;;;2.87;70.12
70833;BME280;71099;59.528;17.886;2023-10-09T05:42:47;101000.34;;;2.81;70.49
70833;BME280;71099;59.528;17.886;2023-10-09T05:45:23;101006.94;;;2.85;70.13
70833;BME280;71099;59.528;17.886;2023-10-09T05:48:06;101002.72;;;2.84;70.52
70833;BME280;71099;59.528;17.886;2023-10-09T05:50:52;101001.00;;;2.85;69.99
70833;BME280;71099;59.528;17.886;2023-10-09T05:53:38;101005.28;;;2.84;70.47
70833;BME280;71099;59.528;17.886;2023-10-09T05:56:10;100997.63;;;2.84;70.46
70833;BME280;71099;59.528;17.886;2023-10-09T05:58:53;100994.19;;;2.85;70.21
70833;BME280;71099;59.528;17.886;2023-10-09T06:01:25;100995.25;;;2.81;70.80
70833;BME280;71099;59.528;17.886;2023-10-09T06:04:08;100996.97;;;2.81;70.62
70833;BME280;71099;59.528;17.886;2023-10-09T06:06:39;100998.00;;;2.78;71.20
70833;BME280;71099;59.528;17.886;2023-10-09T06:09:13;100998.72;;;2.80;71.48
70833;BME280;71099;59.528;17.886;2023-10-09T06:11:43;100995.44;;;2.78;70.41
70833;BME280;71099;59.528;17.886;2023-10-09T06:14:26;101003.88;;;2.79;71.36
70833;BME280;71099;59.528;17.886;2023-10-09T06:16:56;101003.88;;;2.79;71.48
70833;BME280;71099;59.528;17.886;2023-10-09T06:19:22;100997.81;;;2.81;71.68
70833;BME280;71099;59.528;17.886;2023-10-09T06:21:47;101007.91;;;2.83;71.41
70833;BME280;71099;59.528;17.886;2023-10-09T06:24:31;101008.72;;;2.83;70.97
70833;BME280;71099;59.528;17.886;2023-10-09T06:27:15;101004.16;;;2.74;71.22
70833;BME280;71099;59.528;17.886;2023-10-09T06:30:01;101009.16;;;2.76;72.05
70833;BME280;71099;59.528;17.886;2023-10-09T06:32:45;101005.63;;;2.78;71.47
70833;BME280;71099;59.528;17.886;2023-10-09T06:35:34;101012.09;;;2.84;71.77
70833;BME280;71099;59.528;17.886;2023-10-09T06:38:01;101011.19;;;2.85;71.96
70833;BME280;71099;59.528;17.886;2023-10-09T06:40:30;101020.41;;;2.87;71.46
70833;BME280;71099;59.528;17.886;2023-10-09T06:43:01;101016.47;;;2.82;71.72
70833;BME280;71099;59.528;17.886;2023-10-09T06:45:37;101016.38;;;2.83;72.03
70833;BME280;71099;59.528;17.886;2023-10-09T06:48:10;101014.66;;;2.84;72.03
70833;BME280;71099;59.528;17.886;2023-10-09T06:50:54;101013.66;;;2.86;72.01
70833;BME280;71099;59.528;17.886;2023-10-09T06:53:28;101016.06;;;2.89;72.14
70833;BME280;71099;59.528;17.886;2023-10-09T06:56:13;101011.50;;;2.94;71.34
70833;BME280;71099;59.528;17.886;2023-10-09T06:58:51;101021.38;;;3.01;71.68
70833;BME280;71099;59.528;17.886;2023-10-09T07:01:21;101015.16;;;3.05;71.27
70833;BME280;71099;59.528;17.886;2023-10-09T07:03:52;101007.88;;;2.99;70.96
70833;BME280;71099;59.528;17.886;2023-10-09T07:06:19;101016.91;;;3.04;71.09
70833;BME280;71099;59.528;17.886;2023-10-09T07:09:10;101016.28;;;3.01;71.15
70833;BME280;71099;59.528;17.886;2023-10-09T07:11:39;101019.38;;;3.06;71.17
70833;BME280;71099;59.528;17.886;2023-10-09T07:14:12;101015.72;;;3.10;71.21
70833;BME280;71099;59.528;17.886;2023-10-09T07:17:00;101019.53;;;3.03;70.67
70833;BME280;71099;59.528;17.886;2023-10-09T07:19:29;101019.69;;;3.15;70.46
70833;BME280;71099;59.528;17.886;2023-10-09T07:22:07;101013.78;;;3.29;70.93
70833;BME280;71099;59.528;17.886;2023-10-09T07:24:55;101005.94;;;3.32;69.68
70833;BME280;71099;59.528;17.886;2023-10-09T07:27:49;101010.25;;;3.45;69.52
70833;BME280;71099;59.528;17.886;2023-10-09T07:30:20;101017.63;;;3.64;68.79
70833;BME280;71099;59.528;17.886;2023-10-09T07:33:02;101008.16;;;3.80;68.97
70833;BME280;71099;59.528;17.886;2023-10-09T07:35:48;101020.84;;;3.96;68.41
70833;BME280;71099;59.528;17.886;2023-10-09T07:38:27;101021.19;;;4.04;67.06
70833;BME280;71099;59.528;17.886;2023-10-09T07:41:01;101019.19;;;4.09;67.00
70833;BME280;71099;59.528;17.886;2023-10-09T07:43:32;101014.69;;;4.13;66.67
70833;BME280;71099;59.528;17.886;2023-10-09T07:46:19;101020.31;;;4.32;66.46
70833;BME280;71099;59.528;17.886;2023-10-09T07:49:17;101018.16;;;4.53;65.60
70833;BME280;71099;59.528;17.886;2023-10-09T07:51:50;101002.69;;;4.68;65.38
70833;BME280;71099;59.528;17.886;2023-10-09T07:54:20;101001.72;;;4.83;65.41
70833;BME280;71099;59.528;17.886;2023-10-09T07:56:58;101007.88;;;4.93;64.39
70833;BME280;71099;59.528;17.886;2023-10-09T07:59:41;101001.53;;;4.99;63.90
70833;BME280;71099;59.528;17.886;2023-10-09T08:02:22;101007.88;;;4.93;63.77
70833;BME280;71099;59.528;17.886;2023-10-09T08:05:01;101006.84;;;4.96;63.29
70833;BME280;71099;59.528;17.886;2023-10-09T08:07:45;100998.28;;;5.10;63.61
70833;BME280;71099;59.528;17.886;2023-10-09T08:10:20;100998.91;;;5.26;63.33
70833;BME280;71099;59.528;17.886;2023-10-09T08:12:46;100999.16;;;5.35;62.75
70833;BME280;71099;59.528;17.886;2023-10-09T08:15:12;100994.44;;;5.42;62.71
70833;BME280;71099;59.528;17.886;2023-10-09T08:20:31;101011.22;;;5.59;61.11
70833;BME280;71099;59.528;17.886;2023-10-09T08:23:15;101001.78;;;5.59;62.36
70833;BME280;71099;59.528;17.886;2023-10-09T08:26:01;101000.97;;;5.71;61.67
70833;BME280;71099;59.528;17.886;2023-10-09T08:28:43;100994.72;;;5.75;61.53
70833;BME280;71099;59.528;17.886;2023-10-09T08:31:13;100990.50;;;5.74;59.90
70833;BME280;71099;59.528;17.886;2023-10-09T08:33:47;100986.81;;;5.78;60.19
70833;BME280;71099;59.528;17.886;2023-10-09T08:36:24;100988.03;;;5.73;60.53
70833;BME280;71099;59.528;17.886;2023-10-09T08:38:56;100983.34;;;5.79;60.32
70833;BME280;71099;59.528;17.886;2023-10-09T08:41:26;100989.59;;;5.88;59.39
70833;BME280;71099;59.528;17.886;2023-10-09T08:43:56;100990.31;;;5.77;59.64
70833;BME280;71099;59.528;17.886;2023-10-09T08:46:24;100992.16;;;5.88;60.14
70833;BME280;71099;59.528;17.886;2023-10-09T08:48:54;100978.81;;;5.96;59.55
70833;BME280;71099;59.528;17.886;2023-10-09T08:51:20;100977.06;;;6.09;59.73
70833;BME280;71099;59.528;17.886;2023-10-09T08:53:47;100978.38;;;6.14;59.42
70833;BME280;71099;59.528;17.886;2023-10-09T08:56:14;100987.47;;;6.18;59.64
70833;BME280;71099;59.528;17.886;2023-10-09T08:58:48;100984.25;;;6.27;59.44
70833;BME280;71099;59.528;17.886;2023-10-09T09:01:16;100980.97;;;6.38;58.74
70833;BME280;71099;59.528;17.886;2023-10-09T09:03:42;100991.00;;;6.41;58.50
70833;BME280;71099;59.528;17.886;2023-10-09T09:06:11;100980.84;;;6.39;58.25
70833;BME280;71099;59.528;17.886;2023-10-09T09:08:40;100985.66;;;6.44;58.57
70833;BME280;71099;59.528;17.886;2023-10-09T09:11:16;100993.00;;;6.49;57.92
70833;BME280;71099;59.528;17.886;2023-10-09T09:14:00;100996.50;;;6.48;57.60
70833;BME280;71099;59.528;17.886;2023-10-09T09:16:43;100993.91;;;6.60;58.18
70833;BME280;71099;59.528;17.886;2023-10-09T09:19:14;101003.94;;;6.63;57.80
70833;BME280;71099;59.528;17.886;2023-10-09T09:21:49;100990.66;;;6.69;57.64
70833;BME280;71099;59.528;17.886;2023-10-09T09:24:20;100985.34;;;6.83;57.54
70833;BME280;71099;59.528;17.886;2023-10-09T09:26:55;100988.34;;;6.77;57.66
70833;BME280;71099;59.528;17.886;2023-10-09T09:29:38;100980.69;;;6.88;57.12
70833;BME280;71099;59.528;17.886;2023-10-09T09:32:11;100980.47;;;6.92;56.64
70833;BME280;71099;59.528;17.886;2023-10-09T09:34:49;100974.44;;;7.04;57.33
70833;BME280;71099;59.528;17.886;2023-10-09T09:37:22;100977.47;;;7.09;57.22
70833;BME280;71099;59.528;17.886;2023-10-09T09:39:55;100982.38;;;7.12;56.66
70833;BME280;71099;59.528;17.886;2023-10-09T09:42:22;100978.88;;;7.13;56.98
70833;BME280;71099;59.528;17.886;2023-10-09T09:44:53;100981.72;;;7.21;56.90
70833;BME280;71099;59.528;17.886;2023-10-09T09:47:21;100978.44;;;7.19;55.82
70833;BME280;71099;59.528;17.886;2023-10-09T09:49:56;100981.97;;;7.29;56.25
70833;BME280;71099;59.528;17.886;2023-10-09T09:52:28;100979.06;;;7.45;56.70
70833;BME280;71099;59.528;17.886;2023-10-09T09:54:54;100974.06;;;7.54;56.21
70833;BME280;71099;59.528;17.886;2023-10-09T09:57:23;100967.84;;;7.57;54.56
70833;BME280;71099;59.528;17.886;2023-10-09T09:59:51;100965.53;;;7.65;54.63
70833;BME280;71099;59.528;17.886;2023-10-09T10:02:29;100967.97;;;7.44;54.38
70833;BME280;71099;59.528;17.886;2023-10-09T10:05:01;100970.56;;;7.55;54.66
70833;BME280;71099;59.528;17.886;2023-10-09T10:07:31;100956.56;;;7.59;54.35
70833;BME280;71099;59.528;17.886;2023-10-09T10:12:58;100954.56;;;7.74;53.84
70833;BME280;71099;59.528;17.886;2023-10-09T10:15:58;100960.16;;;7.68;54.22
70833;BME280;71099;59.528;17.886;2023-10-09T10:18:52;100957.72;;;7.77;54.27
70833;BME280;71099;59.528;17.886;2023-10-09T10:21:18;100962.38;;;7.83;54.96
70833;BME280;71099;59.528;17.886;2023-10-09T10:24:02;100960.03;;;7.92;54.56
70833;BME280;71099;59.528;17.886;2023-10-09T10:26:37;100959.28;;;8.01;54.70
70833;BME280;71099;59.528;17.886;2023-10-09T10:29:19;100946.66;;;8.09;54.60
70833;BME280;71099;59.528;17.886;2023-10-09T10:32:14;100949.69;;;8.25;53.87
70833;BME280;71099;59.528;17.886;2023-10-09T10:37:12;100947.53;;;8.41;54.11
70833;BME280;71099;59.528;17.886;2023-10-09T10:39:50;100945.28;;;8.48;55.04
70833;BME280;71099;59.528;17.886;2023-10-09T10:42:16;100951.25;;;8.48;53.62
70833;BME280;71099;59.528;17.886;2023-10-09T10:45:02;100954.34;;;8.63;53.05
70833;BME280;71099;59.528;17.886;2023-10-09T10:47:28;100951.91;;;8.61;53.68
70833;BME280;71099;59.528;17.886;2023-10-09T10:50:01;100959.75;;;8.60;53.67
70833;BME280;71099;59.528;17.886;2023-10-09T10:52:45;100950.56;;;8.46;53.07
70833;BME280;71099;59.528;17.886;2023-10-09T10:55:16;100957.56;;;8.44;53.11
70833;BME280;71099;59.528;17.886;2023-10-09T10:57:44;100961.75;;;8.56;53.21
70833;BME280;71099;59.528;17.886;2023-10-09T11:00:26;100954.22;;;8.64;52.85
70833;BME280;71099;59.528;17.886;2023-10-09T11:03:10;100961.25;;;8.62;53.14
70833;BME280;71099;59.528;17.886;2023-10-09T11:05:44;100959.22;;;8.45;53.04
70833;BME280;71099;59.528;17.886;2023-10-09T11:08:24;100955.22;;;8.52;53.44
70833;BME280;71099;59.528;17.886;2023-10-09T11:11:10;100961.13;;;8.64;53.07
70833;BME280;71099;59.528;17.886;2023-10-09T11:13:41;100959.59;;;8.72;53.19
70833;BME280;71099;59.528;17.886;2023-10-09T11:16:23;100959.88;;;8.58;53.34
70833;BME280;71099;59.528;17.886;2023-10-09T11:19:21;100964.28;;;8.67;53.13
70833;BME280;71099;59.528;17.886;2023-10-09T11:21:53;100964.47;;;8.75;52.71
70833;BME280;71099;59.528;17.886;2023-10-09T11:24:31;100962.41;;;8.69;52.14
70833;BME280;71099;59.528;17.886;2023-10-09T11:27:06;100967.31;;;8.72;52.61
70833;BME280;71099;59.528;17.886;2023-10-09T11:29:35;100961.38;;;8.81;53.24
70833;BME280;71099;59.528;17.886;2023-10-09T11:32:15;100967.03;;;8.96;52.56
70833;BME280;71099;59.528;17.886;2023-10-09T11:35:13;100972.50;;;9.03;52.45
70833;BME280;71099;59.528;17.886;2023-10-09T11:37:58;100975.53;;;9.08;53.08
70833;BME280;71099;59.528;17.886;2023-10-09T11:40:30;100970.38;;;9.08;52.47
70833;BME280;71099;59.528;17.886;2023-10-09T11:43:15;100970.56;;;9.16;52.80
70833;BME280;71099;59.528;17.886;2023-10-09T11:45:40;100969.88;;;9.14;51.90
70833;BME280;71099;59.528;17.886;2023-10-09T11:48:19;100968.25;;;9.13;52.30
70833;BME280;71099;59.528;17.886;2023-10-09T11:50:58;100973.66;;;9.10;52.25
70833;BME280;71099;59.528;17.886;2023-10-09T11:53:42;100968.50;;;9.10;51.96
70833;BME280;71099;59.528;17.886;2023-10-09T11:56:23;100974.78;;;8.96;52.54
70833;BME280;71099;59.528;17.886;2023-10-09T11:58:52;100970.91;;;9.02;51.98
70833;BME280;71099;59.528;17.886;2023-10-09T12:01:19;100965.75;;;9.02;51.54
70833;BME280;71099;59.528;17.886;2023-10-09T12:03:49;100974.28;;;9.02;52.89
70833;BME280;71099;59.528;17.886;2023-10-09T12:06:21;100972.34;;;8.95;51.99
70833;BME280;71099;59.528;17.886;2023-10-09T12:08:55;100972.75;;;9.00;52.52
70833;BME280;71099;59.528;17.886;2023-10-09T12:11:23;100957.47;;;8.98;52.80
70833;BME280;71099;59.528;17.886;2023-10-09T12:13:54;100960.09;;;9.08;52.43
70833;BME280;71099;59.528;17.886;2023-10-09T12:16:22;100959.78;;;9.01;52.53
70833;BME280;71099;59.528;17.886;2023-10-09T12:18:53;100963.34;;;8.89;52.62
70833;BME280;71099;59.528;17.886;2023-10-09T12:21:20;100948.78;;;8.99;53.26
70833;BME280;71099;59.528;17.886;2023-10-09T12:23:45;100955.94;;;8.96;53.10
70833;BME280;71099;59.528;17.886;2023-10-09T12:26:12;100962.59;;;8.98;53.01
70833;BME280;71099;59.528;17.886;2023-10-09T12:28:42;100963.09;;;8.92;53.24
70833;BME280;71099;59.528;17.886;2023-10-09T12:31:14;100963.22;;;8.91;52.65
70833;BME280;71099;59.528;17.886;2023-10-09T12:33:40;100959.47;;;8.95;52.51
70833;BME280;71099;59.528;17.886;2023-10-09T12:36:06;100952.41;;;8.97;52.56
70833;BME280;71099;59.528;17.886;2023-10-09T12:38:43;100950.03;;;9.05;53.43
70833;BME280;71099;59.528;17.886;2023-10-09T12:41:11;100953.56;;;9.04;52.14
70833;BME280;71099;59.528;17.886;2023-10-09T12:43:51;100950.31;;;9.02;52.05
70833;BME280;71099;59.528;17.886;2023-10-09T12:46:17;100953.81;;;9.01;52.41
70833;BME280;71099;59.528;17.886;2023-10-09T12:48:44;100953.81;;;9.01;52.40
70833;BME280;71099;59.528;17.886;2023-10-09T12:51:15;100947.91;;;9.10;52.45
70833;BME280;71099;59.528;17.886;2023-10-09T12:53:45;100951.44;;;9.09;53.30
70833;BME280;71099;59.528;17.886;2023-10-09T12:56:14;100950.84;;;8.84;52.01
70833;BME280;71099;59.528;17.886;2023-10-09T12:58:40;100945.88;;;8.93;53.18
70833;BME280;71099;59.528;17.886;2023-10-09T13:01:17;100948.28;;;8.84;52.67
70833;BME280;71099;59.528;17.886;2023-10-09T13:03:44;100948.16;;;8.86;53.47
70833;BME280;71099;59.528;17.886;2023-10-09T13:06:14;100946.16;;;8.90;52.92
70833;BME280;71099;59.528;17.886;2023-10-09T13:08:40;100942.94;;;8.97;53.06
70833;BME280;71099;59.528;17.886;2023-10-09T13:11:08;100948.22;;;8.96;54.06
70833;BME280;71099;59.528;17.886;2023-10-09T13:13:37;100950.78;;;8.96;53.03
70833;BME280;71099;59.528;17.886;2023-10-09T13:16:14;100951.56;;;8.87;53.50
70833;BME280;71099;59.528;17.886;2023-10-09T13:18:52;100952.78;;;8.71;52.77
70833;BME280;71099;59.528;17.886;2023-10-09T13:21:23;100954.38;;;8.83;53.95
70833;BME280;71099;59.528;17.886;2023-10-09T13:23:50;100949.47;;;8.80;53.49
70833;BME280;71099;59.528;17.886;2023-10-09T13:26:20;100945.28;;;8.79;52.94
70833;BME280;71099;59.528;17.886;2023-10-09T13:28:58;100938.22;;;8.81;52.64
70833;BME280;71099;59.528;17.886;2023-10-09T13:31:25;100941.00;;;8.90;53.26
70833;BME280;71099;59.528;17.886;2023-10-09T13:33:57;100932.25;;;8.81;53.54
70833;BME280;71099;59.528;17.886;2023-10-09T13:36:25;100935.81;;;8.80;53.03
70833;BME280;71099;59.528;17.886;2023-10-09T13:39:14;100930.31;;;8.73;53.00
70833;BME280;71099;59.528;17.886;2023-10-09T13:41:57;100929.31;;;8.86;52.95